TimeEST,TemperatureF,Dew PointF,Humidity,Sea Level PressureIn,VisibilityMPH,Wind Direction,Wind SpeedMPH,Gust SpeedMPH,PrecipitationIn,Events,Conditions,WindDirDegrees,DateUTC
12:53 AM,33.1,18.0,54,30.35,10.0,Calm,Calm,-,N/A,,Overcast,0,2013-01-23 05:53:00
1:53 AM,33.1,19.9,59,30.34,10.0,North,3.5,-,N/A,,Overcast,10,2013-01-23 06:53:00
2:53 AM,30.9,19.9,64,30.34,10.0,Calm,Calm,-,N/A,,Overcast,0,2013-01-23 07:53:00
3:53 AM,30.9,25.0,79,30.35,10.0,Calm,Calm,-,N/A,,Overcast,0,2013-01-23 08:53:00
4:53 AM,32.0,23.0,69,30.34,10.0,Calm,Calm,-,N/A,,Overcast,0,2013-01-23 09:53:00
5:53 AM,32.0,18.0,56,30.35,10.0,Calm,Calm,-,N/A,,Overcast,0,2013-01-23 10:53:00
6:53 AM,32.0,18.0,56,30.36,10.0,Calm,Calm,-,N/A,,Overcast,0,2013-01-23 11:53:00
7:53 AM,30.9,21.0,67,30.38,10.0,Calm,Calm,-,N/A,,Overcast,0,2013-01-23 12:53:00
8:53 AM,33.1,18.0,54,30.38,10.0,Calm,Calm,-,N/A,,Overcast,0,2013-01-23 13:53:00
9:53 AM,36.0,17.1,46,30.38,10.0,Calm,Calm,-,N/A,,Overcast,0,2013-01-23 14:53:00
10:53 AM,39.0,19.0,45,30.40,10.0,Calm,Calm,-,N/A,,Overcast,0,2013-01-23 15:53:00
11:53 AM,42.1,19.0,40,30.37,10.0,Variable,5.8,-,N/A,,Mostly Cloudy,0,2013-01-23 16:53:00
12:53 PM,46.0,21.0,37,30.32,10.0,Calm,Calm,-,N/A,,Clear,0,2013-01-23 17:53:00
1:53 PM,48.9,25.0,39,30.27,10.0,Variable,4.6,-,N/A,,Clear,0,2013-01-23 18:53:00
2:53 PM,51.1,26.1,38,30.25,10.0,Variable,3.5,-,N/A,,Clear,0,2013-01-23 19:53:00
3:53 PM,53.1,28.0,38,30.22,10.0,Variable,5.8,-,N/A,,Clear,0,2013-01-23 20:53:00
4:53 PM,52.0,30.9,45,30.21,10.0,WSW,3.5,-,N/A,,Scattered Clouds,240,2013-01-23 21:53:00
5:53 PM,50.0,32.0,50,30.19,10.0,Calm,Calm,-,N/A,,Scattered Clouds,0,2013-01-23 22:53:00
6:53 PM,45.0,33.1,63,30.20,10.0,Calm,Calm,-,N/A,,Clear,0,2013-01-23 23:53:00
7:53 PM,46.0,34.0,63,30.18,10.0,Calm,Calm,-,N/A,,Mostly Cloudy,0,2013-01-24 00:53:00
8:53 PM,48.0,35.1,61,30.19,10.0,WSW,4.6,-,N/A,,Overcast,250,2013-01-24 01:53:00
9:53 PM,50.0,36.0,59,30.18,10.0,SW,3.5,-,N/A,,Overcast,230,2013-01-24 02:53:00
10:30 PM,51.8,35.6,54,30.19,10.0,West,6.9,-,N/A,,Overcast,260,2013-01-24 03:30:00
10:53 PM,51.1,36.0,56,30.19,10.0,Variable,4.6,-,N/A,,Overcast,0,2013-01-24 03:53:00
11:02 PM,50.0,37.4,62,30.19,10.0,WSW,12.7,27.6,N/A,,Overcast,240,2013-01-24 04:02:00
11:53 PM,48.9,37.0,64,30.19,10.0,SW,4.6,-,N/A,,Scattered Clouds,220,2013-01-24 04:53:00